createdAt,value
2022-11-13T00:00:13.546Z,6.92
2022-11-13T00:05:45.191Z,6.78
2022-11-13T00:11:16.957Z,6.77
2022-11-13T00:16:48.644Z,6.86
2022-11-13T00:22:21.754Z,6.92
2022-11-13T00:27:52.102Z,6.95
2022-11-13T00:33:38.564Z,6.85
2022-11-13T00:38:59.891Z,6.56
2022-11-13T00:44:31.835Z,6.53
2022-11-13T00:50:03.490Z,6.22
2022-11-13T00:55:35.308Z,6.22
2022-11-13T01:01:07.803Z,6.09
2022-11-13T01:06:38.542Z,5.91
2022-11-13T01:12:10.231Z,5.77
2022-11-13T01:17:42.420Z,5.82
2022-11-13T01:23:13.803Z,5.83
2022-11-13T01:28:45.537Z,5.8
2022-11-13T01:34:17.288Z,5.76
2022-11-13T01:39:55.707Z,5.57
2022-11-13T01:45:27.282Z,5.54
2022-11-13T01:50:59.215Z,5.36
2022-11-13T01:56:30.947Z,5.4
2022-11-13T02:02:02.933Z,5.25
2022-11-13T02:07:34.487Z,5.15
2022-11-13T02:13:06.472Z,5.14
2022-11-13T02:18:38.111Z,5.03
2022-11-13T02:24:09.807Z,4.91
2022-11-13T02:29:41.779Z,5.01
2022-11-13T02:35:13.413Z,4.82
2022-11-13T02:40:49.177Z,4.83
2022-11-13T02:46:21.103Z,4.81
2022-11-13T02:51:53.484Z,4.74
2022-11-13T02:57:24.570Z,4.61
2022-11-13T03:02:56.048Z,4.62
2022-11-13T03:08:28.954Z,4.6
2022-11-13T03:13:59.750Z,4.66
2022-11-13T03:19:31.189Z,4.65
2022-11-13T03:25:07.512Z,4.66
2022-11-13T03:30:34.641Z,4.62
2022-11-13T03:36:06.661Z,4.5
2022-11-13T03:41:42.720Z,4.54
2022-11-13T03:47:14.218Z,4.39
2022-11-13T03:52:46.175Z,4.53
2022-11-13T03:58:17.694Z,4.43
2022-11-13T04:03:49.963Z,4.4
2022-11-13T04:09:21.510Z,4.46
2022-11-13T04:14:52.906Z,4.53
2022-11-13T04:20:24.548Z,4.46
2022-11-13T04:25:56.535Z,4.17
2022-11-13T04:31:28.332Z,4.32
2022-11-13T04:36:59.939Z,4.49
2022-11-13T04:42:35.848Z,4.27
2022-11-13T04:48:07.879Z,4.16
2022-11-13T04:53:40.117Z,4.07
2022-11-13T04:59:11.242Z,4.05
2022-11-13T05:04:43.034Z,4.13
2022-11-13T05:10:14.681Z,4.04
2022-11-13T05:15:46.154Z,4.01
2022-11-13T05:21:18.129Z,3.91
2022-11-13T05:26:49.573Z,3.77
2022-11-13T05:32:21.565Z,3.69
2022-11-13T05:37:52.992Z,3.8
2022-11-13T05:43:29.205Z,3.71
2022-11-13T05:49:01.280Z,3.58
2022-11-13T05:54:32.781Z,3.67
2022-11-13T06:00:04.324Z,3.5
2022-11-13T06:05:36.042Z,3.74
2022-11-13T06:11:07.933Z,3.86
2022-11-13T06:16:39.812Z,3.77
2022-11-13T06:22:11.482Z,3.71
2022-11-13T06:27:42.925Z,3.9
2022-11-13T06:33:14.929Z,4.14
2022-11-13T06:38:46.610Z,3.89
2022-11-13T06:44:22.693Z,3.7
2022-11-13T06:49:54.465Z,3.87
2022-11-13T06:55:26.161Z,4.06
2022-11-13T07:00:57.627Z,3.86
2022-11-13T07:06:29.364Z,3.93
2022-11-13T07:12:01.620Z,3.89
2022-11-13T07:17:33.026Z,4.11
2022-11-13T07:23:04.519Z,4.34
2022-11-13T07:28:36.260Z,4.37
2022-11-13T07:34:08.284Z,4.35
2022-11-13T07:39:39.731Z,4.5
2022-11-13T07:45:15.830Z,4.35
2022-11-13T07:50:47.810Z,4.05
2022-11-13T07:56:22.961Z,3.97
2022-11-13T08:01:51.243Z,4.13
2022-11-13T08:07:22.770Z,4.47
2022-11-13T08:12:54.739Z,4.15
2022-11-13T08:18:27.568Z,3.86
2022-11-13T08:23:58.132Z,4.11
2022-11-13T08:29:30.317Z,3.97
2022-11-13T08:35:01.543Z,4.2
2022-11-13T08:40:33.593Z,4.45
2022-11-13T08:46:09.431Z,4.39
2022-11-13T08:51:41.153Z,3.76
2022-11-13T08:57:13.871Z,4.66
2022-11-13T09:02:44.659Z,4.58
2022-11-13T09:08:16.321Z,4.2
2022-11-13T09:13:55.212Z,4.39
2022-11-13T09:19:26.674Z,5.13
2022-11-13T09:24:58.387Z,4.88
2022-11-13T09:30:30.121Z,4.71
2022-11-13T09:36:01.884Z,5.31
2022-11-13T09:41:33.566Z,5.4
2022-11-13T09:47:11.717Z,5.8
2022-11-13T09:52:44.047Z,5.87
2022-11-13T09:58:15.147Z,5.32
2022-11-13T10:04:00.908Z,5.39
2022-11-13T10:09:20.167Z,5.22
2022-11-13T10:14:50.281Z,5.56
2022-11-13T10:20:22.011Z,5.75
2022-11-13T10:25:53.967Z,6.04
2022-11-13T10:31:26.312Z,6.08
2022-11-13T10:36:57.183Z,6.0
2022-11-13T10:42:28.924Z,6.0
2022-11-13T10:48:06.206Z,6.76
2022-11-13T10:53:37.163Z,6.59
2022-11-13T10:59:08.796Z,6.84
2022-11-13T11:04:40.484Z,7.36
2022-11-13T11:10:12.179Z,7.98
2022-11-13T11:15:44.712Z,8.35
2022-11-13T11:21:15.395Z,8.11
2022-11-13T11:26:47.323Z,8.33
2022-11-13T11:32:18.876Z,8.36
2022-11-13T11:37:50.851Z,8.9
2022-11-13T11:43:22.582Z,9.41
2022-11-13T11:48:59.124Z,9.77
2022-11-13T11:54:30.191Z,9.91
2022-11-13T12:00:02.028Z,10.47
2022-11-13T12:05:33.841Z,10.49
2022-11-13T12:11:05.687Z,10.63
2022-11-13T12:16:37.136Z,10.49
2022-11-13T12:22:09.209Z,10.6
2022-11-13T12:27:40.871Z,10.92
2022-11-13T12:33:12.296Z,11.06
2022-11-13T12:38:44.246Z,10.96
2022-11-13T12:44:16.031Z,10.36
2022-11-13T12:49:51.883Z,10.09
2022-11-13T12:55:23.612Z,10.32
2022-11-13T13:00:55.618Z,10.51
2022-11-13T13:06:27.246Z,10.59
2022-11-13T13:11:58.777Z,10.88
2022-11-13T13:17:30.498Z,10.78
2022-11-13T13:23:06.065Z,10.73
2022-11-13T13:28:33.909Z,10.93
2022-11-13T13:34:05.647Z,10.98
2022-11-13T13:39:37.396Z,10.98
2022-11-13T13:45:09.051Z,11.08
2022-11-13T13:50:47.200Z,11.17
2022-11-13T13:56:18.921Z,11.23
2022-11-13T14:01:51.065Z,11.15
2022-11-13T14:07:22.744Z,11.22
2022-11-13T14:12:54.094Z,11.04
2022-11-13T14:18:26.283Z,11.29
2022-11-13T14:23:57.927Z,10.85
2022-11-13T14:29:30.430Z,11.36
2022-11-13T14:35:01.302Z,11.45
2022-11-13T14:40:32.860Z,11.5
2022-11-13T14:46:04.742Z,11.58
2022-11-13T14:51:41.091Z,11.63
2022-11-13T14:57:12.291Z,11.6
2022-11-13T15:02:44.279Z,11.6
2022-11-13T15:08:15.943Z,11.58
2022-11-13T15:13:48.327Z,11.59
2022-11-13T15:19:19.128Z,11.51
2022-11-13T15:24:50.899Z,11.43
2022-11-13T15:30:24.135Z,11.32
2022-11-13T15:35:54.399Z,11.17
2022-11-13T15:41:26.415Z,11.04
2022-11-13T15:46:57.826Z,10.86
2022-11-13T15:52:34.355Z,10.74
2022-11-13T15:58:06.010Z,10.66
2022-11-13T16:03:37.382Z,10.52
2022-11-13T16:09:10.007Z,10.46
2022-11-13T16:14:41.050Z,10.26
2022-11-13T16:20:13.139Z,10.18
2022-11-13T16:25:44.294Z,10.06
2022-11-13T16:31:16.013Z,9.93
2022-11-13T16:36:47.699Z,9.94
2022-11-13T16:42:19.513Z,9.9
2022-11-13T16:47:51.426Z,9.81
2022-11-13T16:53:27.635Z,9.77
2022-11-13T16:58:59.225Z,9.69
2022-11-13T17:04:31.549Z,9.63
2022-11-13T17:10:29.451Z,9.58
2022-11-13T17:15:34.191Z,9.49
2022-11-13T17:21:06.127Z,9.45
2022-11-13T17:26:37.603Z,9.37
2022-11-13T17:32:09.354Z,9.3
2022-11-13T17:37:41.326Z,9.23
2022-11-13T17:43:13.078Z,9.21
2022-11-13T17:48:44.523Z,9.12
2022-11-13T17:54:20.966Z,9.04
2022-11-13T17:59:52.333Z,9.0
2022-11-13T18:05:24.088Z,8.98
2022-11-13T18:10:55.808Z,8.93
2022-11-13T18:16:27.559Z,8.78
2022-11-13T18:21:59.259Z,8.53
2022-11-13T18:27:30.962Z,8.56
2022-11-13T18:33:02.708Z,8.69
2022-11-13T18:38:34.695Z,8.77
2022-11-13T18:44:06.199Z,8.68
2022-11-13T18:49:37.878Z,8.65
2022-11-13T18:55:13.980Z,8.59
2022-11-13T19:00:45.980Z,8.47
2022-11-13T19:06:17.699Z,8.49
2022-11-13T19:11:49.202Z,8.47
2022-11-13T19:17:21.055Z,8.59
2022-11-13T19:22:53.121Z,8.61
2022-11-13T19:28:24.357Z,8.54
2022-11-13T19:33:56.029Z,8.54
2022-11-13T19:39:28.451Z,8.53
2022-11-13T19:44:59.483Z,8.54
2022-11-13T19:50:31.477Z,8.49
2022-11-13T19:56:07.303Z,8.47
2022-11-13T20:01:39.035Z,8.38
2022-11-13T20:07:11.081Z,8.35
2022-11-13T20:12:42.787Z,8.34
2022-11-13T20:18:14.278Z,8.27
2022-11-13T20:23:46.174Z,8.2
2022-11-13T20:29:17.896Z,8.12
2022-11-13T20:34:49.643Z,8.08
2022-11-13T20:40:21.086Z,8.02
2022-11-13T20:45:52.838Z,7.97
2022-11-13T20:51:24.582Z,7.97
2022-11-13T20:57:00.939Z,7.9
2022-11-13T21:02:32.684Z,7.94
2022-11-13T21:08:04.559Z,7.73
2022-11-13T21:13:35.937Z,7.71
2022-11-13T21:19:08.028Z,7.53
2022-11-13T21:24:39.717Z,7.3
2022-11-13T21:30:11.146Z,7.31
2022-11-13T21:35:43.569Z,7.44
2022-11-13T21:41:14.787Z,7.43
2022-11-13T21:46:46.599Z,7.32
2022-11-13T21:52:18.050Z,7.32
2022-11-13T21:57:54.159Z,7.11
2022-11-13T22:03:25.868Z,7.15
2022-11-13T22:08:57.642Z,7.07
2022-11-13T22:14:29.273Z,7.0
2022-11-13T22:20:01.117Z,7.01
2022-11-13T22:25:32.760Z,6.91
2022-11-13T22:31:04.583Z,6.86
2022-11-13T22:36:36.199Z,6.72
2022-11-13T22:42:08.207Z,6.73
2022-11-13T22:47:39.684Z,6.55
2022-11-13T22:53:11.392Z,6.35
2022-11-13T22:58:47.474Z,6.42
2022-11-13T23:04:19.181Z,6.41
2022-11-13T23:09:51.112Z,6.41
2022-11-13T23:15:22.703Z,6.4
2022-11-13T23:20:54.508Z,6.53
2022-11-13T23:26:26.352Z,6.57
2022-11-13T23:31:58.101Z,6.53
2022-11-13T23:37:29.523Z,6.42
2022-11-13T23:43:01.716Z,6.41
2022-11-13T23:48:32.974Z,6.39
2022-11-13T23:54:04.919Z,6.41
2022-11-13T23:59:43.111Z,6.39
